LVMSA SAMR-SAMI
Flight info
| Callsign | LVMSA |
|---|---|
| Flight time | 0h 39m |
| Altitude | 6000 |
| Route | DCT SRA355040 DCT |
| Aircraft | BE36/L-S/C |
Departure
| Time | 2026-05-08 16:34 |
|---|---|
| Airport | Suboficial Ay Santiago Germano Airport (SAMR) |
Arrival
| Time | 2026-05-08 17:13 |
|---|---|
| Airport | Aeroclub San Martín (SAMI) |
| Time | Latitude | Longitude | Altitude | Speed | Heading |
|---|---|---|---|---|---|
| 2026-05-08 16:25 | -34.59093 | -68.40052 | 2463 ft | 0 kts | 272° |
| 2026-05-08 16:28 | -34.59093 | -68.40053 | 2463 ft | 0 kts | 272° |
| 2026-05-08 16:29 | -34.59075 | -68.40076 | 2463 ft | 7 kts | 341° |
| 2026-05-08 16:29 | -34.59003 | -68.40063 | 2461 ft | 13 kts | 20° |
| 2026-05-08 16:29 | -34.58899 | -68.40024 | 2459 ft | 16 kts | 354° |
| 2026-05-08 16:29 | -34.58847 | -68.40129 | 2461 ft | 16 kts | 288° |
| 2026-05-08 16:30 | -34.58807 | -68.40278 | 2464 ft | 20 kts | 286° |
| 2026-05-08 16:30 | -34.58758 | -68.40451 | 2468 ft | 23 kts | 288° |
| 2026-05-08 16:30 | -34.58704 | -68.40645 | 2472 ft | 25 kts | 288° |
| 2026-05-08 16:30 | -34.58647 | -68.40853 | 2476 ft | 26 kts | 288° |
| 2026-05-08 16:31 | -34.58587 | -68.41069 | 2482 ft | 27 kts | 288° |
| 2026-05-08 16:31 | -34.58538 | -68.41267 | 2487 ft | 21 kts | 287° |
| 2026-05-08 16:31 | -34.58497 | -68.41415 | 2490 ft | 16 kts | 286° |
| 2026-05-08 16:31 | -34.58484 | -68.41528 | 2493 ft | 8 kts | 295° |
| 2026-05-08 16:32 | -34.58481 | -68.41533 | 2493 ft | 0 kts | 319° |
| 2026-05-08 16:33 | -34.58476 | -68.41534 | 2493 ft | 3 kts | 13° |
| 2026-05-08 16:33 | -34.58482 | -68.41436 | 2491 ft | 33 kts | 106° |
| 2026-05-08 16:33 | -34.58617 | -68.40945 | 2479 ft | 81 kts | 107° |
| 2026-05-08 16:33 | -34.58816 | -68.40232 | 2492 ft | 94 kts | 105° |
| 2026-05-08 16:34 | -34.59022 | -68.39462 | 2682 ft | 97 kts | 104° |
| 2026-05-08 16:34 | -34.59259 | -68.38677 | 2842 ft | 100 kts | 106° |
| 2026-05-08 16:34 | -34.59457 | -68.37877 | 3011 ft | 101 kts | 101° |
| 2026-05-08 16:34 | -34.59512 | -68.37037 | 3182 ft | 101 kts | 74° |
| 2026-05-08 16:35 | -34.59090 | -68.36359 | 3336 ft | 105 kts | 31° |
| 2026-05-08 16:35 | -34.58379 | -68.36193 | 3515 ft | 107 kts | 357° |
| 2026-05-08 16:35 | -34.57625 | -68.36249 | 3628 ft | 113 kts | 355° |
| 2026-05-08 16:35 | -34.56814 | -68.36339 | 3718 ft | 121 kts | 355° |
| 2026-05-08 16:36 | -34.55952 | -68.36434 | 3840 ft | 125 kts | 355° |
| 2026-05-08 16:36 | -34.55083 | -68.36524 | 3967 ft | 127 kts | 355° |
| 2026-05-08 16:36 | -34.54192 | -68.36616 | 4092 ft | 129 kts | 355° |
| 2026-05-08 16:36 | -34.53282 | -68.36704 | 4220 ft | 130 kts | 355° |
| 2026-05-08 16:37 | -34.52378 | -68.36790 | 4374 ft | 129 kts | 355° |
| 2026-05-08 16:37 | -34.51490 | -68.36869 | 4540 ft | 127 kts | 355° |
| 2026-05-08 16:37 | -34.50612 | -68.36942 | 4711 ft | 125 kts | 354° |
| 2026-05-08 16:37 | -34.49748 | -68.36998 | 4883 ft | 124 kts | 355° |
| 2026-05-08 16:38 | -34.48890 | -68.37048 | 5047 ft | 123 kts | 355° |
| 2026-05-08 16:38 | -34.48030 | -68.37093 | 5219 ft | 122 kts | 355° |
| 2026-05-08 16:38 | -34.47185 | -68.37133 | 5392 ft | 120 kts | 355° |
| 2026-05-08 16:38 | -34.46356 | -68.37170 | 5564 ft | 119 kts | 355° |
| 2026-05-08 16:39 | -34.45528 | -68.37195 | 5734 ft | 117 kts | 355° |
| 2026-05-08 16:39 | -34.44715 | -68.37215 | 5900 ft | 115 kts | 354° |
| 2026-05-08 16:39 | -34.43862 | -68.37221 | 5886 ft | 129 kts | 355° |
| 2026-05-08 16:39 | -34.42943 | -68.37238 | 5878 ft | 135 kts | 355° |
| 2026-05-08 16:40 | -34.41974 | -68.37256 | 5875 ft | 139 kts | 355° |
| 2026-05-08 16:40 | -34.41001 | -68.37287 | 5876 ft | 142 kts | 355° |
| 2026-05-08 16:40 | -34.39997 | -68.37322 | 5877 ft | 144 kts | 355° |
| 2026-05-08 16:40 | -34.38979 | -68.37368 | 5877 ft | 146 kts | 355° |
| 2026-05-08 16:41 | -34.37965 | -68.37412 | 5873 ft | 147 kts | 355° |
| 2026-05-08 16:41 | -34.36935 | -68.37455 | 5870 ft | 147 kts | 355° |
| 2026-05-08 16:41 | -34.35907 | -68.37509 | 5873 ft | 148 kts | 355° |
| 2026-05-08 16:42 | -34.33841 | -68.37611 | 5870 ft | 149 kts | 355° |
| 2026-05-08 16:42 | -34.32808 | -68.37671 | 5875 ft | 149 kts | 354° |
| 2026-05-08 16:42 | -34.31769 | -68.37726 | 5876 ft | 149 kts | 355° |
| 2026-05-08 16:42 | -34.30724 | -68.37783 | 5871 ft | 149 kts | 355° |
| 2026-05-08 16:43 | -34.29711 | -68.37959 | 5872 ft | 148 kts | 347° |
| 2026-05-08 16:43 | -34.28683 | -68.38179 | 5871 ft | 148 kts | 347° |
| 2026-05-08 16:43 | -34.27678 | -68.38395 | 5868 ft | 148 kts | 347° |
| 2026-05-08 16:43 | -34.26655 | -68.38616 | 5868 ft | 148 kts | 347° |
| 2026-05-08 16:44 | -34.25637 | -68.38837 | 5871 ft | 149 kts | 347° |
| 2026-05-08 16:44 | -34.24608 | -68.39064 | 5867 ft | 149 kts | 347° |
| 2026-05-08 16:44 | -34.23595 | -68.39292 | 5868 ft | 148 kts | 347° |
| 2026-05-08 16:44 | -34.22589 | -68.39525 | 5870 ft | 147 kts | 347° |
| 2026-05-08 16:45 | -34.21572 | -68.39756 | 5868 ft | 147 kts | 347° |
| 2026-05-08 16:45 | -34.20571 | -68.39990 | 5869 ft | 147 kts | 347° |
| 2026-05-08 16:45 | -34.19558 | -68.40222 | 5868 ft | 147 kts | 347° |
| 2026-05-08 16:45 | -34.18561 | -68.40447 | 5870 ft | 147 kts | 347° |
| 2026-05-08 16:46 | -34.17555 | -68.40678 | 5875 ft | 147 kts | 347° |
| 2026-05-08 16:46 | -34.16537 | -68.40914 | 5871 ft | 147 kts | 347° |
| 2026-05-08 16:46 | -34.15526 | -68.41062 | 5868 ft | 147 kts | 354° |
| 2026-05-08 16:46 | -34.14517 | -68.41175 | 5869 ft | 146 kts | 352° |
| 2026-05-08 16:47 | -34.13493 | -68.41300 | 5869 ft | 145 kts | 352° |
| 2026-05-08 16:47 | -34.12490 | -68.41419 | 5867 ft | 146 kts | 352° |
| 2026-05-08 16:47 | -34.11464 | -68.41546 | 5872 ft | 148 kts | 352° |
| 2026-05-08 16:47 | -34.10441 | -68.41668 | 5868 ft | 149 kts | 352° |
| 2026-05-08 16:48 | -34.09404 | -68.41788 | 5869 ft | 149 kts | 352° |
| 2026-05-08 16:48 | -34.08360 | -68.41904 | 5864 ft | 150 kts | 352° |
| 2026-05-08 16:48 | -34.07312 | -68.42029 | 5864 ft | 151 kts | 353° |
| 2026-05-08 16:48 | -34.06265 | -68.42157 | 5866 ft | 151 kts | 352° |
| 2026-05-08 16:49 | -34.05222 | -68.42280 | 5862 ft | 152 kts | 352° |
| 2026-05-08 16:49 | -34.04173 | -68.42403 | 5866 ft | 152 kts | 352° |
| 2026-05-08 16:49 | -34.03109 | -68.42532 | 5864 ft | 152 kts | 352° |
| 2026-05-08 16:49 | -34.02046 | -68.42656 | 5861 ft | 152 kts | 352° |
| 2026-05-08 16:50 | -34.01001 | -68.42777 | 5860 ft | 152 kts | 352° |
| 2026-05-08 16:50 | -33.99939 | -68.42906 | 5861 ft | 152 kts | 352° |
| 2026-05-08 16:50 | -33.98888 | -68.43035 | 5855 ft | 152 kts | 352° |
| 2026-05-08 16:50 | -33.97836 | -68.43164 | 5852 ft | 151 kts | 352° |
| 2026-05-08 16:51 | -33.96785 | -68.43284 | 5846 ft | 151 kts | 352° |
| 2026-05-08 16:51 | -33.95740 | -68.43406 | 5846 ft | 151 kts | 352° |
| 2026-05-08 16:51 | -33.94685 | -68.43527 | 5847 ft | 151 kts | 352° |
| 2026-05-08 16:51 | -33.93637 | -68.43649 | 5851 ft | 150 kts | 352° |
| 2026-05-08 16:52 | -33.92602 | -68.43767 | 5854 ft | 150 kts | 352° |
| 2026-05-08 16:52 | -33.91559 | -68.43888 | 5856 ft | 150 kts | 352° |
| 2026-05-08 16:52 | -33.90507 | -68.44018 | 5854 ft | 150 kts | 352° |
| 2026-05-08 16:52 | -33.89466 | -68.44152 | 5855 ft | 150 kts | 352° |
| 2026-05-08 16:53 | -33.87391 | -68.44418 | 5852 ft | 150 kts | 352° |
| 2026-05-08 16:53 | -33.86339 | -68.44556 | 5859 ft | 150 kts | 352° |
| 2026-05-08 16:53 | -33.85303 | -68.44693 | 5858 ft | 150 kts | 352° |
| 2026-05-08 16:54 | -33.84264 | -68.44832 | 5855 ft | 150 kts | 352° |
| 2026-05-08 16:54 | -33.83223 | -68.44973 | 5855 ft | 150 kts | 352° |
| 2026-05-08 16:54 | -33.82172 | -68.45111 | 5856 ft | 150 kts | 352° |
| 2026-05-08 16:54 | -33.81132 | -68.45247 | 5856 ft | 150 kts | 352° |
| 2026-05-08 16:55 | -33.80100 | -68.45383 | 5854 ft | 149 kts | 352° |
| 2026-05-08 16:55 | -33.79062 | -68.45521 | 5852 ft | 149 kts | 352° |
| 2026-05-08 16:55 | -33.78025 | -68.45664 | 5856 ft | 149 kts | 352° |
| 2026-05-08 16:55 | -33.76976 | -68.45809 | 5858 ft | 149 kts | 352° |
| 2026-05-08 16:56 | -33.75950 | -68.45947 | 5863 ft | 149 kts | 352° |
| 2026-05-08 16:56 | -33.74909 | -68.46091 | 5861 ft | 149 kts | 352° |
| 2026-05-08 16:56 | -33.73869 | -68.46234 | 5855 ft | 150 kts | 352° |
| 2026-05-08 16:56 | -33.72831 | -68.46384 | 5850 ft | 150 kts | 352° |
| 2026-05-08 16:57 | -33.71791 | -68.46538 | 5856 ft | 149 kts | 352° |
| 2026-05-08 16:57 | -33.70761 | -68.46684 | 5859 ft | 149 kts | 352° |
| 2026-05-08 16:57 | -33.69721 | -68.46831 | 5858 ft | 149 kts | 352° |
| 2026-05-08 16:57 | -33.68693 | -68.46970 | 5860 ft | 149 kts | 352° |
| 2026-05-08 16:58 | -33.67665 | -68.47115 | 5864 ft | 149 kts | 352° |
| 2026-05-08 16:58 | -33.66629 | -68.47264 | 5866 ft | 149 kts | 352° |
| 2026-05-08 16:58 | -33.65602 | -68.47413 | 5863 ft | 149 kts | 352° |
| 2026-05-08 16:58 | -33.64562 | -68.47566 | 5860 ft | 149 kts | 352° |
| 2026-05-08 16:59 | -33.63538 | -68.47720 | 5856 ft | 149 kts | 352° |
| 2026-05-08 16:59 | -33.62495 | -68.47881 | 5862 ft | 149 kts | 352° |
| 2026-05-08 16:59 | -33.61462 | -68.48045 | 5863 ft | 149 kts | 352° |
| 2026-05-08 16:59 | -33.60428 | -68.48208 | 5860 ft | 150 kts | 352° |
| 2026-05-08 17:00 | -33.59396 | -68.48373 | 5866 ft | 149 kts | 352° |
| 2026-05-08 17:00 | -33.58364 | -68.48534 | 5863 ft | 150 kts | 351° |
| 2026-05-08 17:00 | -33.57327 | -68.48694 | 5859 ft | 150 kts | 351° |
| 2026-05-08 17:00 | -33.56276 | -68.48856 | 5856 ft | 150 kts | 352° |
| 2026-05-08 17:01 | -33.55242 | -68.49024 | 5854 ft | 150 kts | 352° |
| 2026-05-08 17:01 | -33.54208 | -68.49194 | 5857 ft | 149 kts | 352° |
| 2026-05-08 17:01 | -33.53182 | -68.49366 | 5856 ft | 149 kts | 352° |
| 2026-05-08 17:01 | -33.52155 | -68.49543 | 5856 ft | 149 kts | 352° |
| 2026-05-08 17:02 | -33.51127 | -68.49721 | 5857 ft | 149 kts | 352° |
| 2026-05-08 17:02 | -33.50098 | -68.49904 | 5854 ft | 149 kts | 352° |
| 2026-05-08 17:02 | -33.49063 | -68.50079 | 5849 ft | 149 kts | 351° |
| 2026-05-08 17:02 | -33.48022 | -68.50246 | 5848 ft | 149 kts | 352° |
| 2026-05-08 17:03 | -33.46997 | -68.50418 | 5851 ft | 149 kts | 352° |
| 2026-05-08 17:03 | -33.45969 | -68.50593 | 5852 ft | 149 kts | 352° |
| 2026-05-08 17:03 | -33.44934 | -68.50761 | 5848 ft | 149 kts | 352° |
| 2026-05-08 17:03 | -33.43910 | -68.50936 | 5842 ft | 149 kts | 352° |
| 2026-05-08 17:04 | -33.42879 | -68.51117 | 5843 ft | 149 kts | 352° |
| 2026-05-08 17:04 | -33.41858 | -68.51296 | 5841 ft | 148 kts | 352° |
| 2026-05-08 17:04 | -33.40831 | -68.51477 | 5843 ft | 148 kts | 352° |
| 2026-05-08 17:04 | -33.39807 | -68.51656 | 5844 ft | 148 kts | 352° |
| 2026-05-08 17:05 | -33.38780 | -68.51829 | 5850 ft | 149 kts | 352° |
| 2026-05-08 17:05 | -33.37758 | -68.52010 | 5844 ft | 148 kts | 351° |
| 2026-05-08 17:05 | -33.36731 | -68.52191 | 5848 ft | 148 kts | 352° |
| 2026-05-08 17:05 | -33.35695 | -68.52290 | 5844 ft | 148 kts | 359° |
| 2026-05-08 17:06 | -33.34667 | -68.52306 | 5839 ft | 148 kts | 359° |
| 2026-05-08 17:06 | -33.33641 | -68.52321 | 5848 ft | 148 kts | 359° |
| 2026-05-08 17:06 | -33.32600 | -68.52339 | 5841 ft | 148 kts | 359° |
| 2026-05-08 17:06 | -33.31572 | -68.52359 | 5843 ft | 148 kts | 359° |
| 2026-05-08 17:07 | -33.30545 | -68.52379 | 5823 ft | 149 kts | 359° |
| 2026-05-08 17:07 | -33.29487 | -68.52408 | 5705 ft | 156 kts | 358° |
| 2026-05-08 17:07 | -33.28377 | -68.52439 | 5587 ft | 161 kts | 359° |
| 2026-05-08 17:07 | -33.27234 | -68.52473 | 5469 ft | 165 kts | 359° |
| 2026-05-08 17:08 | -33.26060 | -68.52507 | 5347 ft | 169 kts | 359° |
| 2026-05-08 17:08 | -33.24887 | -68.52547 | 5230 ft | 171 kts | 359° |
| 2026-05-08 17:08 | -33.23689 | -68.52586 | 5109 ft | 173 kts | 359° |
| 2026-05-08 17:08 | -33.22472 | -68.52629 | 4990 ft | 174 kts | 359° |
| 2026-05-08 17:09 | -33.21262 | -68.52638 | 4868 ft | 174 kts | 1° |
| 2026-05-08 17:09 | -33.20051 | -68.52596 | 4745 ft | 174 kts | 2° |
| 2026-05-08 17:09 | -33.18849 | -68.52558 | 4606 ft | 172 kts | 2° |
| 2026-05-08 17:09 | -33.17650 | -68.52509 | 4301 ft | 174 kts | 3° |
| 2026-05-08 17:10 | -33.16426 | -68.52435 | 4026 ft | 174 kts | 2° |
| 2026-05-08 17:10 | -33.15229 | -68.52445 | 3750 ft | 172 kts | 358° |
| 2026-05-08 17:10 | -33.14052 | -68.52570 | 3539 ft | 166 kts | 355° |
| 2026-05-08 17:10 | -33.12931 | -68.52756 | 3456 ft | 156 kts | 352° |
| 2026-05-08 17:11 | -33.11923 | -68.52996 | 3480 ft | 141 kts | 349° |
| 2026-05-08 17:11 | -33.11016 | -68.53254 | 3461 ft | 122 kts | 349° |
| 2026-05-08 17:11 | -33.10278 | -68.53370 | 3371 ft | 90 kts | 358° |
| 2026-05-08 17:11 | -33.09719 | -68.53266 | 3238 ft | 78 kts | 22° |
| 2026-05-08 17:12 | -33.09251 | -68.52955 | 3017 ft | 80 kts | 28° |
| 2026-05-08 17:12 | -33.08791 | -68.52591 | 2862 ft | 76 kts | 31° |
| 2026-05-08 17:12 | -33.08353 | -68.52235 | 2726 ft | 70 kts | 28° |
| 2026-05-08 17:12 | -33.07936 | -68.51957 | 2595 ft | 71 kts | 26° |
| 2026-05-08 17:13 | -33.07506 | -68.51669 | 2453 ft | 71 kts | 25° |
| 2026-05-08 17:13 | -33.07068 | -68.51381 | 2276 ft | 72 kts | 25° |
| 2026-05-08 17:13 | -33.06661 | -68.51115 | 2174 ft | 56 kts | 26° |
| 2026-05-08 17:13 | -33.06371 | -68.50931 | 2171 ft | 39 kts | 27° |
| 2026-05-08 17:14 | -33.06181 | -68.50813 | 2168 ft | 18 kts | 18° |
| 2026-05-08 17:14 | -33.06204 | -68.50805 | 2168 ft | 11 kts | 211° |
| 2026-05-08 17:14 | -33.06287 | -68.50867 | 2171 ft | 16 kts | 211° |
| 2026-05-08 17:14 | -33.06407 | -68.50947 | 2171 ft | 22 kts | 208° |
| 2026-05-08 17:15 | -33.06557 | -68.51047 | 2173 ft | 21 kts | 206° |
| 2026-05-08 17:15 | -33.06617 | -68.51181 | 2174 ft | 18 kts | 254° |
| 2026-05-08 17:15 | -33.06656 | -68.51334 | 2174 ft | 19 kts | 254° |
| 2026-05-08 17:15 | -33.06701 | -68.51492 | 2175 ft | 19 kts | 239° |
| 2026-05-08 17:16 | -33.06734 | -68.51562 | 2176 ft | 0 kts | 250° |